sensor_id;sensor_type;location;lat;lon;timestamp;temperature;humidity
12769;DHT22;6448;48.916;8.990;2023-03-04T00:00:49;9.20;47.70
12769;DHT22;6448;48.916;8.990;2023-03-04T00:01:50;9.10;47.60
12769;DHT22;6448;48.916;8.990;2023-03-04T00:02:51;9.10;47.60
12769;DHT22;6448;48.916;8.990;2023-03-04T00:03:53;9.10;47.60
12769;DHT22;6448;48.916;8.990;2023-03-04T00:04:54;9.10;47.70
12769;DHT22;6448;48.916;8.990;2023-03-04T00:05:55;9.10;47.70
12769;DHT22;6448;48.916;8.990;2023-03-04T00:06:56;9.10;47.70
12769;DHT22;6448;48.916;8.990;2023-03-04T00:07:58;9.10;47.70
12769;DHT22;6448;48.916;8.990;2023-03-04T00:08:59;9.10;47.70
12769;DHT22;6448;48.916;8.990;2023-03-04T00:10:00;9.40;47.90
12769;DHT22;6448;48.916;8.990;2023-03-04T00:11:01;9.10;47.80
12769;DHT22;6448;48.916;8.990;2023-03-04T00:12:03;9.10;47.80
12769;DHT22;6448;48.916;8.990;2023-03-04T00:13:07;9.10;47.70
12769;DHT22;6448;48.916;8.990;2023-03-04T00:14:09;9.10;47.70
12769;DHT22;6448;48.916;8.990;2023-03-04T00:15:10;9.10;47.60
12769;DHT22;6448;48.916;8.990;2023-03-04T00:16:13;9.10;47.70
12769;DHT22;6448;48.916;8.990;2023-03-04T00:17:13;9.10;47.70
12769;DHT22;6448;48.916;8.990;2023-03-04T00:18:15;9.10;47.70
12769;DHT22;6448;48.916;8.990;2023-03-04T00:19:16;9.10;47.80
12769;DHT22;6448;48.916;8.990;2023-03-04T00:20:18;9.10;47.80
12769;DHT22;6448;48.916;8.990;2023-03-04T00:21:19;9.10;47.80
12769;DHT22;6448;48.916;8.990;2023-03-04T00:22:20;9.10;47.80
12769;DHT22;6448;48.916;8.990;2023-03-04T00:23:21;9.10;47.80
12769;DHT22;6448;48.916;8.990;2023-03-04T00:24:23;9.00;47.80
12769;DHT22;6448;48.916;8.990;2023-03-04T00:25:24;9.00;47.80
12769;DHT22;6448;48.916;8.990;2023-03-04T00:26:26;9.00;47.80
12769;DHT22;6448;48.916;8.990;2023-03-04T00:27:27;9.00;47.80
12769;DHT22;6448;48.916;8.990;2023-03-04T00:28:28;9.00;47.90
12769;DHT22;6448;48.916;8.990;2023-03-04T00:29:29;9.00;47.80
12769;DHT22;6448;48.916;8.990;2023-03-04T00:30:31;9.00;47.80
12769;DHT22;6448;48.916;8.990;2023-03-04T00:31:33;9.00;47.80
12769;DHT22;6448;48.916;8.990;2023-03-04T00:32:35;9.00;47.90
12769;DHT22;6448;48.916;8.990;2023-03-04T00:33:37;9.00;47.90
12769;DHT22;6448;48.916;8.990;2023-03-04T00:34:39;9.00;47.90
12769;DHT22;6448;48.916;8.990;2023-03-04T00:35:40;9.00;47.90
12769;DHT22;6448;48.916;8.990;2023-03-04T00:36:42;9.00;47.90
12769;DHT22;6448;48.916;8.990;2023-03-04T00:37:44;9.00;47.90
12769;DHT22;6448;48.916;8.990;2023-03-04T00:38:45;8.80;47.80
12769;DHT22;6448;48.916;8.990;2023-03-04T00:39:46;8.90;47.80
12769;DHT22;6448;48.916;8.990;2023-03-04T00:40:48;8.90;47.90
12769;DHT22;6448;48.916;8.990;2023-03-04T00:41:49;8.90;47.90
12769;DHT22;6448;48.916;8.990;2023-03-04T00:42:51;8.90;47.90
12769;DHT22;6448;48.916;8.990;2023-03-04T00:43:52;8.90;47.90
12769;DHT22;6448;48.916;8.990;2023-03-04T00:44:54;8.80;47.90
12769;DHT22;6448;48.916;8.990;2023-03-04T00:45:54;8.90;48.00
12769;DHT22;6448;48.916;8.990;2023-03-04T00:46:58;8.80;47.90
12769;DHT22;6448;48.916;8.990;2023-03-04T00:47:59;8.90;48.00
12769;DHT22;6448;48.916;8.990;2023-03-04T00:49:00;8.80;48.00
12769;DHT22;6448;48.916;8.990;2023-03-04T00:50:01;9.00;48.10
12769;DHT22;6448;48.916;8.990;2023-03-04T00:51:03;8.80;48.00
12769;DHT22;6448;48.916;8.990;2023-03-04T00:52:04;8.80;48.00
12769;DHT22;6448;48.916;8.990;2023-03-04T00:53:06;8.80;48.10
12769;DHT22;6448;48.916;8.990;2023-03-04T00:54:07;8.80;48.10
12769;DHT22;6448;48.916;8.990;2023-03-04T00:55:09;8.80;48.10
12769;DHT22;6448;48.916;8.990;2023-03-04T00:56:10;8.90;48.10
12769;DHT22;6448;48.916;8.990;2023-03-04T00:57:11;8.80;48.10
12769;DHT22;6448;48.916;8.990;2023-03-04T00:58:12;8.80;48.20
12769;DHT22;6448;48.916;8.990;2023-03-04T00:59:14;8.80;48.20
12769;DHT22;6448;48.916;8.990;2023-03-04T01:00:15;8.80;48.20
12769;DHT22;6448;48.916;8.990;2023-03-04T01:01:17;8.80;48.20
12769;DHT22;6448;48.916;8.990;2023-03-04T01:02:20;8.80;48.20
12769;DHT22;6448;48.916;8.990;2023-03-04T01:03:21;8.80;48.20
12769;DHT22;6448;48.916;8.990;2023-03-04T01:04:24;8.70;48.70
12769;DHT22;6448;48.916;8.990;2023-03-04T01:05:26;8.70;48.10
12769;DHT22;6448;48.916;8.990;2023-03-04T01:06:27;8.70;48.10
12769;DHT22;6448;48.916;8.990;2023-03-04T01:07:29;8.70;48.10
12769;DHT22;6448;48.916;8.990;2023-03-04T01:08:30;8.70;48.10
12769;DHT22;6448;48.916;8.990;2023-03-04T01:09:31;8.70;48.10
12769;DHT22;6448;48.916;8.990;2023-03-04T01:10:32;8.70;48.00
12769;DHT22;6448;48.916;8.990;2023-03-04T01:11:34;8.70;48.10
12769;DHT22;6448;48.916;8.990;2023-03-04T01:12:35;8.70;48.00
12769;DHT22;6448;48.916;8.990;2023-03-04T01:13:37;8.70;48.10
12769;DHT22;6448;48.916;8.990;2023-03-04T01:14:37;8.70;48.10
12769;DHT22;6448;48.916;8.990;2023-03-04T01:15:39;8.70;48.10
12769;DHT22;6448;48.916;8.990;2023-03-04T01:16:40;8.60;48.00
12769;DHT22;6448;48.916;8.990;2023-03-04T01:17:43;8.70;48.10
12769;DHT22;6448;48.916;8.990;2023-03-04T01:18:45;8.60;48.10
12769;DHT22;6448;48.916;8.990;2023-03-04T01:19:47;8.60;48.20
12769;DHT22;6448;48.916;8.990;2023-03-04T01:20:48;8.60;48.20
12769;DHT22;6448;48.916;8.990;2023-03-04T01:21:50;8.60;48.20
12769;DHT22;6448;48.916;8.990;2023-03-04T01:22:50;8.60;48.20
12769;DHT22;6448;48.916;8.990;2023-03-04T01:23:52;8.60;48.20
12769;DHT22;6448;48.916;8.990;2023-03-04T01:24:53;8.60;48.20
12769;DHT22;6448;48.916;8.990;2023-03-04T01:25:55;8.60;48.30
12769;DHT22;6448;48.916;8.990;2023-03-04T01:26:55;8.60;48.30
12769;DHT22;6448;48.916;8.990;2023-03-04T01:27:57;8.50;48.30
12769;DHT22;6448;48.916;8.990;2023-03-04T01:28:58;8.50;48.30
12769;DHT22;6448;48.916;8.990;2023-03-04T01:30:00;8.50;48.40
12769;DHT22;6448;48.916;8.990;2023-03-04T01:31:00;8.50;48.40
12769;DHT22;6448;48.916;8.990;2023-03-04T01:32:03;8.50;48.40
12769;DHT22;6448;48.916;8.990;2023-03-04T01:33:05;8.50;48.40
12769;DHT22;6448;48.916;8.990;2023-03-04T01:34:07;8.50;48.40
12769;DHT22;6448;48.916;8.990;2023-03-04T01:35:10;8.60;48.50
12769;DHT22;6448;48.916;8.990;2023-03-04T01:36:12;8.50;48.50
12769;DHT22;6448;48.916;8.990;2023-03-04T01:37:12;8.50;48.50
12769;DHT22;6448;48.916;8.990;2023-03-04T01:38:14;8.50;48.50
12769;DHT22;6448;48.916;8.990;2023-03-04T01:39:15;8.50;48.60
12769;DHT22;6448;48.916;8.990;2023-03-04T01:40:18;8.50;48.60
12769;DHT22;6448;48.916;8.990;2023-03-04T01:41:23;8.70;48.70
12769;DHT22;6448;48.916;8.990;2023-03-04T01:42:27;8.50;48.70
12769;DHT22;6448;48.916;8.990;2023-03-04T01:43:30;8.40;48.70
12769;DHT22;6448;48.916;8.990;2023-03-04T01:44:32;8.40;48.70
12769;DHT22;6448;48.916;8.990;2023-03-04T01:45:34;8.40;48.70
12769;DHT22;6448;48.916;8.990;2023-03-04T01:46:36;8.40;48.70
12769;DHT22;6448;48.916;8.990;2023-03-04T01:47:37;8.40;48.80
12769;DHT22;6448;48.916;8.990;2023-03-04T01:48:40;8.40;48.80
12769;DHT22;6448;48.916;8.990;2023-03-04T01:49:42;8.30;48.80
12769;DHT22;6448;48.916;8.990;2023-03-04T01:50:43;8.30;48.90
12769;DHT22;6448;48.916;8.990;2023-03-04T01:51:48;8.30;48.90
12769;DHT22;6448;48.916;8.990;2023-03-04T01:52:50;8.30;48.90
12769;DHT22;6448;48.916;8.990;2023-03-04T01:53:51;8.30;48.90
12769;DHT22;6448;48.916;8.990;2023-03-04T01:54:54;8.30;49.00
12769;DHT22;6448;48.916;8.990;2023-03-04T01:55:56;8.30;49.00
12769;DHT22;6448;48.916;8.990;2023-03-04T01:56:59;8.30;49.10
12769;DHT22;6448;48.916;8.990;2023-03-04T01:58:00;8.30;49.00
12769;DHT22;6448;48.916;8.990;2023-03-04T01:59:13;8.20;49.00
12769;DHT22;6448;48.916;8.990;2023-03-04T02:00:32;8.20;49.00
12769;DHT22;6448;48.916;8.990;2023-03-04T02:01:35;8.30;49.10
12769;DHT22;6448;48.916;8.990;2023-03-04T02:02:37;8.20;49.10
12769;DHT22;6448;48.916;8.990;2023-03-04T02:03:41;8.10;49.10
12769;DHT22;6448;48.916;8.990;2023-03-04T02:04:43;8.20;49.20
12769;DHT22;6448;48.916;8.990;2023-03-04T02:05:46;8.10;49.20
12769;DHT22;6448;48.916;8.990;2023-03-04T02:06:49;8.10;49.20
12769;DHT22;6448;48.916;8.990;2023-03-04T02:07:52;8.10;49.30
12769;DHT22;6448;48.916;8.990;2023-03-04T02:08:53;8.10;49.40
12769;DHT22;6448;48.916;8.990;2023-03-04T02:09:54;8.10;49.40
12769;DHT22;6448;48.916;8.990;2023-03-04T02:10:56;8.10;50.10
12769;DHT22;6448;48.916;8.990;2023-03-04T02:11:57;8.00;49.40
12769;DHT22;6448;48.916;8.990;2023-03-04T02:12:59;8.10;49.60
12769;DHT22;6448;48.916;8.990;2023-03-04T02:14:01;8.00;49.60
12769;DHT22;6448;48.916;8.990;2023-03-04T02:15:04;8.00;49.60
12769;DHT22;6448;48.916;8.990;2023-03-04T02:16:06;8.00;49.60
12769;DHT22;6448;48.916;8.990;2023-03-04T02:17:09;8.00;49.70
12769;DHT22;6448;48.916;8.990;2023-03-04T02:18:14;8.00;49.80
12769;DHT22;6448;48.916;8.990;2023-03-04T02:19:26;8.00;49.80
12769;DHT22;6448;48.916;8.990;2023-03-04T02:20:36;8.10;49.80
12769;DHT22;6448;48.916;8.990;2023-03-04T02:21:43;8.00;49.80
12769;DHT22;6448;48.916;8.990;2023-03-04T02:22:51;8.00;49.80
12769;DHT22;6448;48.916;8.990;2023-03-04T02:24:00;8.00;49.80
12769;DHT22;6448;48.916;8.990;2023-03-04T02:25:08;8.30;49.90
12769;DHT22;6448;48.916;8.990;2023-03-04T02:26:13;8.00;49.80
12769;DHT22;6448;48.916;8.990;2023-03-04T02:27:16;8.00;49.80
12769;DHT22;6448;48.916;8.990;2023-03-04T02:28:17;8.00;49.80
12769;DHT22;6448;48.916;8.990;2023-03-04T02:29:19;8.00;49.80
12769;DHT22;6448;48.916;8.990;2023-03-04T02:30:22;8.00;49.80
12769;DHT22;6448;48.916;8.990;2023-03-04T02:31:29;8.00;49.80
12769;DHT22;6448;48.916;8.990;2023-03-04T02:32:30;8.00;49.80
12769;DHT22;6448;48.916;8.990;2023-03-04T02:33:33;8.00;49.80
12769;DHT22;6448;48.916;8.990;2023-03-04T02:34:34;8.00;49.80
12769;DHT22;6448;48.916;8.990;2023-03-04T02:35:36;8.00;49.80
12769;DHT22;6448;48.916;8.990;2023-03-04T02:36:37;8.10;49.80
12769;DHT22;6448;48.916;8.990;2023-03-04T02:37:39;8.00;49.80
12769;DHT22;6448;48.916;8.990;2023-03-04T02:38:40;8.00;49.70
12769;DHT22;6448;48.916;8.990;2023-03-04T02:39:44;8.10;49.80
12769;DHT22;6448;48.916;8.990;2023-03-04T02:40:48;8.00;49.70
12769;DHT22;6448;48.916;8.990;2023-03-04T02:41:52;8.00;49.70
12769;DHT22;6448;48.916;8.990;2023-03-04T02:42:57;8.00;49.70
12769;DHT22;6448;48.916;8.990;2023-03-04T02:43:59;8.00;49.70
12769;DHT22;6448;48.916;8.990;2023-03-04T02:45:01;8.00;49.70
12769;DHT22;6448;48.916;8.990;2023-03-04T02:46:03;8.00;49.60
12769;DHT22;6448;48.916;8.990;2023-03-04T02:47:07;8.00;49.70
12769;DHT22;6448;48.916;8.990;2023-03-04T02:48:10;8.00;49.70
12769;DHT22;6448;48.916;8.990;2023-03-04T02:49:12;8.00;49.70
12769;DHT22;6448;48.916;8.990;2023-03-04T02:50:14;7.90;49.60
12769;DHT22;6448;48.916;8.990;2023-03-04T02:51:16;7.90;49.70
12769;DHT22;6448;48.916;8.990;2023-03-04T02:52:20;7.90;49.70
12769;DHT22;6448;48.916;8.990;2023-03-04T02:53:22;7.90;49.70
12769;DHT22;6448;48.916;8.990;2023-03-04T02:54:26;7.90;49.70
12769;DHT22;6448;48.916;8.990;2023-03-04T02:55:27;7.90;49.80
12769;DHT22;6448;48.916;8.990;2023-03-04T02:56:29;7.90;49.80
12769;DHT22;6448;48.916;8.990;2023-03-04T02:57:31;7.90;49.80
12769;DHT22;6448;48.916;8.990;2023-03-04T02:58:33;7.90;49.80
12769;DHT22;6448;48.916;8.990;2023-03-04T02:59:34;7.90;49.80
12769;DHT22;6448;48.916;8.990;2023-03-04T03:00:36;7.90;49.80
12769;DHT22;6448;48.916;8.990;2023-03-04T03:01:38;7.90;49.90
12769;DHT22;6448;48.916;8.990;2023-03-04T03:02:40;7.90;49.90
12769;DHT22;6448;48.916;8.990;2023-03-04T03:03:41;7.80;49.90
12769;DHT22;6448;48.916;8.990;2023-03-04T03:04:44;7.80;49.90
12769;DHT22;6448;48.916;8.990;2023-03-04T03:05:47;7.80;50.00
12769;DHT22;6448;48.916;8.990;2023-03-04T03:06:51;7.80;50.00
12769;DHT22;6448;48.916;8.990;2023-03-04T03:07:52;7.80;50.10
12769;DHT22;6448;48.916;8.990;2023-03-04T03:08:54;7.80;50.10
12769;DHT22;6448;48.916;8.990;2023-03-04T03:09:55;7.80;50.10
12769;DHT22;6448;48.916;8.990;2023-03-04T03:10:57;7.80;50.10
12769;DHT22;6448;48.916;8.990;2023-03-04T03:11:59;7.80;50.10
12769;DHT22;6448;48.916;8.990;2023-03-04T03:13:04;8.10;50.30
12769;DHT22;6448;48.916;8.990;2023-03-04T03:14:05;7.80;50.10
12769;DHT22;6448;48.916;8.990;2023-03-04T03:15:08;7.70;50.10
12769;DHT22;6448;48.916;8.990;2023-03-04T03:16:09;7.80;50.10
12769;DHT22;6448;48.916;8.990;2023-03-04T03:17:11;7.70;50.10
12769;DHT22;6448;48.916;8.990;2023-03-04T03:18:12;7.70;50.10
12769;DHT22;6448;48.916;8.990;2023-03-04T03:19:16;7.80;50.10
12769;DHT22;6448;48.916;8.990;2023-03-04T03:20:17;7.80;50.10
12769;DHT22;6448;48.916;8.990;2023-03-04T03:21:20;7.70;50.10
12769;DHT22;6448;48.916;8.990;2023-03-04T03:22:21;7.80;50.10
12769;DHT22;6448;48.916;8.990;2023-03-04T03:23:24;7.70;50.10
12769;DHT22;6448;48.916;8.990;2023-03-04T03:24:26;7.70;50.00
12769;DHT22;6448;48.916;8.990;2023-03-04T03:25:30;7.70;50.00
12769;DHT22;6448;48.916;8.990;2023-03-04T03:26:30;7.70;50.00
12769;DHT22;6448;48.916;8.990;2023-03-04T03:27:32;7.70;50.10
12769;DHT22;6448;48.916;8.990;2023-03-04T03:28:34;7.80;50.10
12769;DHT22;6448;48.916;8.990;2023-03-04T03:29:36;7.70;50.10
12769;DHT22;6448;48.916;8.990;2023-03-04T03:30:40;7.70;50.10
12769;DHT22;6448;48.916;8.990;2023-03-04T03:31:42;7.50;50.00
12769;DHT22;6448;48.916;8.990;2023-03-04T03:32:43;7.70;50.10
12769;DHT22;6448;48.916;8.990;2023-03-04T03:33:45;7.70;50.10
12769;DHT22;6448;48.916;8.990;2023-03-04T03:34:46;7.70;50.10
12769;DHT22;6448;48.916;8.990;2023-03-04T03:35:48;7.70;50.10
12769;DHT22;6448;48.916;8.990;2023-03-04T03:36:48;7.70;50.10
12769;DHT22;6448;48.916;8.990;2023-03-04T03:37:50;7.70;50.10
12769;DHT22;6448;48.916;8.990;2023-03-04T03:38:51;7.70;50.10
12769;DHT22;6448;48.916;8.990;2023-03-04T03:39:53;7.70;50.10
12769;DHT22;6448;48.916;8.990;2023-03-04T03:40:54;7.70;50.10
12769;DHT22;6448;48.916;8.990;2023-03-04T03:41:55;7.70;50.10
12769;DHT22;6448;48.916;8.990;2023-03-04T03:42:56;7.60;50.10
12769;DHT22;6448;48.916;8.990;2023-03-04T03:43:59;7.70;50.10
12769;DHT22;6448;48.916;8.990;2023-03-04T03:45:01;7.60;50.10
12769;DHT22;6448;48.916;8.990;2023-03-04T03:46:03;7.70;50.10
12769;DHT22;6448;48.916;8.990;2023-03-04T03:47:04;7.60;50.10
12769;DHT22;6448;48.916;8.990;2023-03-04T03:48:05;7.60;50.10
12769;DHT22;6448;48.916;8.990;2023-03-04T03:49:06;7.60;50.10
12769;DHT22;6448;48.916;8.990;2023-03-04T03:50:09;7.60;50.10
12769;DHT22;6448;48.916;8.990;2023-03-04T03:51:10;7.60;50.20
12769;DHT22;6448;48.916;8.990;2023-03-04T03:52:11;7.60;50.20
12769;DHT22;6448;48.916;8.990;2023-03-04T03:53:12;7.60;50.20
12769;DHT22;6448;48.916;8.990;2023-03-04T03:54:14;7.60;50.20
12769;DHT22;6448;48.916;8.990;2023-03-04T03:55:15;7.60;50.30
12769;DHT22;6448;48.916;8.990;2023-03-04T03:56:17;7.60;50.30
12769;DHT22;6448;48.916;8.990;2023-03-04T03:57:18;7.50;50.30
12769;DHT22;6448;48.916;8.990;2023-03-04T03:58:20;7.60;50.30
12769;DHT22;6448;48.916;8.990;2023-03-04T03:59:22;7.50;50.30
12769;DHT22;6448;48.916;8.990;2023-03-04T04:00:24;7.50;50.30
12769;DHT22;6448;48.916;8.990;2023-03-04T04:01:25;7.50;50.30
12769;DHT22;6448;48.916;8.990;2023-03-04T04:02:27;7.50;50.30
12769;DHT22;6448;48.916;8.990;2023-03-04T04:03:29;7.50;50.30
12769;DHT22;6448;48.916;8.990;2023-03-04T04:04:31;7.50;50.30
12769;DHT22;6448;48.916;8.990;2023-03-04T04:05:31;7.50;50.20
12769;DHT22;6448;48.916;8.990;2023-03-04T04:06:33;7.50;50.20
12769;DHT22;6448;48.916;8.990;2023-03-04T04:07:35;7.50;50.10
12769;DHT22;6448;48.916;8.990;2023-03-04T04:08:37;7.60;50.20
12769;DHT22;6448;48.916;8.990;2023-03-04T04:09:38;7.50;50.00
12769;DHT22;6448;48.916;8.990;2023-03-04T04:10:40;7.50;50.00
12769;DHT22;6448;48.916;8.990;2023-03-04T04:11:40;7.50;50.00
12769;DHT22;6448;48.916;8.990;2023-03-04T04:12:42;7.50;50.00
12769;DHT22;6448;48.916;8.990;2023-03-04T04:13:43;7.50;50.00
12769;DHT22;6448;48.916;8.990;2023-03-04T04:14:46;7.50;50.10
12769;DHT22;6448;48.916;8.990;2023-03-04T04:15:47;7.50;50.10
12769;DHT22;6448;48.916;8.990;2023-03-04T04:16:49;7.50;50.20
12769;DHT22;6448;48.916;8.990;2023-03-04T04:17:49;7.50;50.30
12769;DHT22;6448;48.916;8.990;2023-03-04T04:18:51;7.50;50.30
12769;DHT22;6448;48.916;8.990;2023-03-04T04:19:52;7.50;50.30
12769;DHT22;6448;48.916;8.990;2023-03-04T04:20:54;7.40;50.30
12769;DHT22;6448;48.916;8.990;2023-03-04T04:21:55;7.40;50.30
12769;DHT22;6448;48.916;8.990;2023-03-04T04:22:56;7.40;50.30
12769;DHT22;6448;48.916;8.990;2023-03-04T04:23:57;7.50;50.40
12769;DHT22;6448;48.916;8.990;2023-03-04T04:24:59;7.40;50.40
12769;DHT22;6448;48.916;8.990;2023-03-04T04:26:00;7.40;50.30
12769;DHT22;6448;48.916;8.990;2023-03-04T04:27:02;7.40;50.40
12769;DHT22;6448;48.916;8.990;2023-03-04T04:28:03;7.40;50.40
12769;DHT22;6448;48.916;8.990;2023-03-04T04:29:05;7.40;50.40
12769;DHT22;6448;48.916;8.990;2023-03-04T04:30:09;7.30;51.00
12769;DHT22;6448;48.916;8.990;2023-03-04T04:31:16;7.30;50.60
12769;DHT22;6448;48.916;8.990;2023-03-04T04:32:30;7.30;50.60
12769;DHT22;6448;48.916;8.990;2023-03-04T04:33:35;7.30;50.70
12769;DHT22;6448;48.916;8.990;2023-03-04T04:34:36;7.30;50.70
12769;DHT22;6448;48.916;8.990;2023-03-04T04:35:37;7.30;50.70
12769;DHT22;6448;48.916;8.990;2023-03-04T04:36:55;7.20;50.70
12769;DHT22;6448;48.916;8.990;2023-03-04T04:37:58;7.30;50.70
12769;DHT22;6448;48.916;8.990;2023-03-04T04:38:59;7.20;50.70
12769;DHT22;6448;48.916;8.990;2023-03-04T04:40:01;7.30;50.70
12769;DHT22;6448;48.916;8.990;2023-03-04T04:41:02;7.20;50.80
12769;DHT22;6448;48.916;8.990;2023-03-04T04:42:04;7.50;50.90
12769;DHT22;6448;48.916;8.990;2023-03-04T04:43:05;7.20;50.70
12769;DHT22;6448;48.916;8.990;2023-03-04T04:44:08;7.20;50.70
12769;DHT22;6448;48.916;8.990;2023-03-04T04:45:10;7.20;50.70
12769;DHT22;6448;48.916;8.990;2023-03-04T04:46:12;7.20;50.70
12769;DHT22;6448;48.916;8.990;2023-03-04T04:47:13;7.10;50.70
12769;DHT22;6448;48.916;8.990;2023-03-04T04:48:15;7.20;50.70
12769;DHT22;6448;48.916;8.990;2023-03-04T04:49:16;7.20;50.70
12769;DHT22;6448;48.916;8.990;2023-03-04T04:50:17;7.20;50.70
12769;DHT22;6448;48.916;8.990;2023-03-04T04:51:18;7.20;50.70
12769;DHT22;6448;48.916;8.990;2023-03-04T04:52:26;7.20;50.70
12769;DHT22;6448;48.916;8.990;2023-03-04T04:53:44;7.20;50.70
12769;DHT22;6448;48.916;8.990;2023-03-04T04:54:45;7.20;50.60
12769;DHT22;6448;48.916;8.990;2023-03-04T04:55:47;7.30;50.70
12769;DHT22;6448;48.916;8.990;2023-03-04T04:56:47;7.20;50.60
12769;DHT22;6448;48.916;8.990;2023-03-04T04:57:49;7.20;50.60
12769;DHT22;6448;48.916;8.990;2023-03-04T04:58:50;7.20;50.50
12769;DHT22;6448;48.916;8.990;2023-03-04T04:59:53;7.20;50.50
12769;DHT22;6448;48.916;8.990;2023-03-04T05:01:11;7.20;50.40
12769;DHT22;6448;48.916;8.990;2023-03-04T05:02:13;7.20;50.40
12769;DHT22;6448;48.916;8.990;2023-03-04T05:03:14;7.50;50.50
12769;DHT22;6448;48.916;8.990;2023-03-04T05:04:16;7.20;50.40
12769;DHT22;6448;48.916;8.990;2023-03-04T05:05:17;7.20;50.50
12769;DHT22;6448;48.916;8.990;2023-03-04T05:06:19;7.20;50.40
12769;DHT22;6448;48.916;8.990;2023-03-04T05:07:21;7.20;50.40
12769;DHT22;6448;48.916;8.990;2023-03-04T05:08:22;7.20;50.40
12769;DHT22;6448;48.916;8.990;2023-03-04T05:09:24;7.20;50.40
12769;DHT22;6448;48.916;8.990;2023-03-04T05:10:25;7.10;50.30
12769;DHT22;6448;48.916;8.990;2023-03-04T05:11:27;7.20;50.40
12769;DHT22;6448;48.916;8.990;2023-03-04T05:12:27;7.20;50.40
12769;DHT22;6448;48.916;8.990;2023-03-04T05:13:29;7.10;50.40
12769;DHT22;6448;48.916;8.990;2023-03-04T05:14:30;7.10;50.40
12769;DHT22;6448;48.916;8.990;2023-03-04T05:15:32;7.20;50.40
12769;DHT22;6448;48.916;8.990;2023-03-04T05:16:34;7.30;50.40
12769;DHT22;6448;48.916;8.990;2023-03-04T05:17:36;7.20;50.40
12769;DHT22;6448;48.916;8.990;2023-03-04T05:18:36;7.10;50.40
12769;DHT22;6448;48.916;8.990;2023-03-04T05:19:38;7.10;50.50
12769;DHT22;6448;48.916;8.990;2023-03-04T05:20:39;7.10;50.50
12769;DHT22;6448;48.916;8.990;2023-03-04T05:21:41;7.10;50.50
12769;DHT22;6448;48.916;8.990;2023-03-04T05:22:41;7.10;50.50
12769;DHT22;6448;48.916;8.990;2023-03-04T05:23:43;7.10;50.50
12769;DHT22;6448;48.916;8.990;2023-03-04T05:24:44;7.30;50.60
12769;DHT22;6448;48.916;8.990;2023-03-04T05:25:46;7.10;50.50
12769;DHT22;6448;48.916;8.990;2023-03-04T05:26:47;7.10;50.50
12769;DHT22;6448;48.916;8.990;2023-03-04T05:27:49;7.10;50.40
12769;DHT22;6448;48.916;8.990;2023-03-04T05:28:50;7.00;50.30
12769;DHT22;6448;48.916;8.990;2023-03-04T05:29:51;7.00;50.30
12769;DHT22;6448;48.916;8.990;2023-03-04T05:30:53;7.00;50.30
12769;DHT22;6448;48.916;8.990;2023-03-04T05:31:56;7.00;50.30
12769;DHT22;6448;48.916;8.990;2023-03-04T05:32:57;7.00;50.20
12769;DHT22;6448;48.916;8.990;2023-03-04T05:33:59;7.00;50.20
12769;DHT22;6448;48.916;8.990;2023-03-04T05:35:00;7.00;50.10
12769;DHT22;6448;48.916;8.990;2023-03-04T05:36:04;7.00;50.10
12769;DHT22;6448;48.916;8.990;2023-03-04T05:37:05;7.00;50.10
12769;DHT22;6448;48.916;8.990;2023-03-04T05:38:10;7.00;50.00
12769;DHT22;6448;48.916;8.990;2023-03-04T05:39:11;7.00;50.00
12769;DHT22;6448;48.916;8.990;2023-03-04T05:40:13;7.00;50.00
12769;DHT22;6448;48.916;8.990;2023-03-04T05:41:14;7.00;49.90
12769;DHT22;6448;48.916;8.990;2023-03-04T05:42:18;7.00;49.90
12769;DHT22;6448;48.916;8.990;2023-03-04T05:43:19;7.00;49.90
12769;DHT22;6448;48.916;8.990;2023-03-04T05:44:22;7.00;49.80
12769;DHT22;6448;48.916;8.990;2023-03-04T05:45:23;7.00;49.80
12769;DHT22;6448;48.916;8.990;2023-03-04T05:46:25;7.00;49.90
12769;DHT22;6448;48.916;8.990;2023-03-04T05:47:27;6.90;49.90
12769;DHT22;6448;48.916;8.990;2023-03-04T05:48:29;7.00;50.00
12769;DHT22;6448;48.916;8.990;2023-03-04T05:49:30;6.90;50.00
12769;DHT22;6448;48.916;8.990;2023-03-04T05:50:32;6.90;50.10
12769;DHT22;6448;48.916;8.990;2023-03-04T05:51:33;6.90;50.10
12769;DHT22;6448;48.916;8.990;2023-03-04T05:52:35;7.00;50.20
12769;DHT22;6448;48.916;8.990;2023-03-04T05:53:36;6.90;50.20
12769;DHT22;6448;48.916;8.990;2023-03-04T05:54:38;6.90;50.20
12769;DHT22;6448;48.916;8.990;2023-03-04T05:55:39;6.90;50.30
12769;DHT22;6448;48.916;8.990;2023-03-04T05:56:41;6.90;50.30
12769;DHT22;6448;48.916;8.990;2023-03-04T05:57:42;6.90;50.40
12769;DHT22;6448;48.916;8.990;2023-03-04T05:58:44;6.90;50.50
12769;DHT22;6448;48.916;8.990;2023-03-04T05:59:46;6.90;50.40
12769;DHT22;6448;48.916;8.990;2023-03-04T06:00:48;6.90;50.50
12769;DHT22;6448;48.916;8.990;2023-03-04T06:01:49;6.90;50.50
12769;DHT22;6448;48.916;8.990;2023-03-04T06:02:52;6.90;50.50
12769;DHT22;6448;48.916;8.990;2023-03-04T06:03:53;6.90;50.50
12769;DHT22;6448;48.916;8.990;2023-03-04T06:04:55;6.90;50.50
12769;DHT22;6448;48.916;8.990;2023-03-04T06:05:56;6.90;50.50
12769;DHT22;6448;48.916;8.990;2023-03-04T06:06:57;6.90;50.60
12769;DHT22;6448;48.916;8.990;2023-03-04T06:07:58;6.90;50.50
12769;DHT22;6448;48.916;8.990;2023-03-04T06:09:00;6.90;50.60
12769;DHT22;6448;48.916;8.990;2023-03-04T06:10:01;6.80;50.50
12769;DHT22;6448;48.916;8.990;2023-03-04T06:11:03;6.80;50.60
12769;DHT22;6448;48.916;8.990;2023-03-04T06:12:05;6.80;50.50
12769;DHT22;6448;48.916;8.990;2023-03-04T06:13:08;6.80;50.50
12769;DHT22;6448;48.916;8.990;2023-03-04T06:14:09;6.80;50.50
12769;DHT22;6448;48.916;8.990;2023-03-04T06:15:11;7.00;50.50
12769;DHT22;6448;48.916;8.990;2023-03-04T06:16:12;6.80;50.50
12769;DHT22;6448;48.916;8.990;2023-03-04T06:17:14;6.80;50.50
12769;DHT22;6448;48.916;8.990;2023-03-04T06:18:16;6.80;50.50
12769;DHT22;6448;48.916;8.990;2023-03-04T06:19:18;6.80;50.60
12769;DHT22;6448;48.916;8.990;2023-03-04T06:20:19;6.80;50.70
12769;DHT22;6448;48.916;8.990;2023-03-04T06:21:20;6.80;50.80
12769;DHT22;6448;48.916;8.990;2023-03-04T06:22:21;6.70;50.80
12769;DHT22;6448;48.916;8.990;2023-03-04T06:23:23;6.70;50.80
12769;DHT22;6448;48.916;8.990;2023-03-04T06:24:24;6.70;50.90
12769;DHT22;6448;48.916;8.990;2023-03-04T06:25:28;6.70;51.00
12769;DHT22;6448;48.916;8.990;2023-03-04T06:26:28;6.60;51.00
12769;DHT22;6448;48.916;8.990;2023-03-04T06:27:30;6.70;51.20
12769;DHT22;6448;48.916;8.990;2023-03-04T06:28:31;6.60;51.20
12769;DHT22;6448;48.916;8.990;2023-03-04T06:29:33;6.60;51.40
12769;DHT22;6448;48.916;8.990;2023-03-04T06:30:33;6.60;51.40
12769;DHT22;6448;48.916;8.990;2023-03-04T06:31:35;6.60;51.50
12769;DHT22;6448;48.916;8.990;2023-03-04T06:32:36;6.50;51.50
12769;DHT22;6448;48.916;8.990;2023-03-04T06:33:39;6.50;51.60
12769;DHT22;6448;48.916;8.990;2023-03-04T06:34:40;6.50;51.70
12769;DHT22;6448;48.916;8.990;2023-03-04T06:35:42;6.50;51.80
12769;DHT22;6448;48.916;8.990;2023-03-04T06:36:42;6.40;51.80
12769;DHT22;6448;48.916;8.990;2023-03-04T06:37:44;6.40;51.90
12769;DHT22;6448;48.916;8.990;2023-03-04T06:38:45;6.50;52.00
12769;DHT22;6448;48.916;8.990;2023-03-04T06:39:47;6.40;52.10
12769;DHT22;6448;48.916;8.990;2023-03-04T06:40:48;6.40;52.10
12769;DHT22;6448;48.916;8.990;2023-03-04T06:41:49;6.40;52.20
12769;DHT22;6448;48.916;8.990;2023-03-04T06:42:50;6.50;52.20
12769;DHT22;6448;48.916;8.990;2023-03-04T06:43:52;6.30;52.20
12769;DHT22;6448;48.916;8.990;2023-03-04T06:44:53;6.40;52.20
12769;DHT22;6448;48.916;8.990;2023-03-04T06:45:55;6.30;52.10